sensor_id;sensor_type;location;lat;lon;timestamp;temperature;humidity
39021;DHT22;25188;51.958;5.842;2023-03-14T00:02:19;12.80;93.00
39021;DHT22;25188;51.958;5.842;2023-03-14T00:04:44;12.80;93.00
39021;DHT22;25188;51.958;5.842;2023-03-14T00:07:11;12.80;93.10
39021;DHT22;25188;51.958;5.842;2023-03-14T00:09:37;12.80;93.20
39021;DHT22;25188;51.958;5.842;2023-03-14T00:12:03;12.80;93.30
39021;DHT22;25188;51.958;5.842;2023-03-14T00:14:30;12.80;93.40
39021;DHT22;25188;51.958;5.842;2023-03-14T00:16:56;12.70;93.60
39021;DHT22;25188;51.958;5.842;2023-03-14T00:19:22;12.70;94.20
39021;DHT22;25188;51.958;5.842;2023-03-14T00:21:47;12.70;95.50
39021;DHT22;25188;51.958;5.842;2023-03-14T00:24:13;12.60;97.10
39021;DHT22;25188;51.958;5.842;2023-03-14T00:26:39;12.40;98.50
39021;DHT22;25188;51.958;5.842;2023-03-14T00:29:04;12.30;99.20
39021;DHT22;25188;51.958;5.842;2023-03-14T00:31:30;12.00;99.50
39021;DHT22;25188;51.958;5.842;2023-03-14T00:33:56;12.00;99.60
39021;DHT22;25188;51.958;5.842;2023-03-14T00:36:22;11.80;99.50
39021;DHT22;25188;51.958;5.842;2023-03-14T00:38:50;11.80;99.30
39021;DHT22;25188;51.958;5.842;2023-03-14T00:41:18;11.70;99.20
39021;DHT22;25188;51.958;5.842;2023-03-14T00:43:45;11.60;99.10
39021;DHT22;25188;51.958;5.842;2023-03-14T00:46:11;11.50;98.90
39021;DHT22;25188;51.958;5.842;2023-03-14T00:48:38;11.50;98.80
39021;DHT22;25188;51.958;5.842;2023-03-14T00:51:04;11.50;98.70
39021;DHT22;25188;51.958;5.842;2023-03-14T00:53:30;11.40;98.80
39021;DHT22;25188;51.958;5.842;2023-03-14T00:55:56;11.40;98.70
39021;DHT22;25188;51.958;5.842;2023-03-14T00:58:22;11.40;98.90
39021;DHT22;25188;51.958;5.842;2023-03-14T01:00:48;11.30;98.90
39021;DHT22;25188;51.958;5.842;2023-03-14T01:03:14;11.40;99.00
39021;DHT22;25188;51.958;5.842;2023-03-14T01:05:40;11.20;99.00
39021;DHT22;25188;51.958;5.842;2023-03-14T01:08:06;11.30;99.10
39021;DHT22;25188;51.958;5.842;2023-03-14T01:10:33;11.30;99.10
39021;DHT22;25188;51.958;5.842;2023-03-14T01:12:59;11.30;99.10
39021;DHT22;25188;51.958;5.842;2023-03-14T01:15:25;11.40;99.10
39021;DHT22;25188;51.958;5.842;2023-03-14T01:17:50;11.30;99.10
39021;DHT22;25188;51.958;5.842;2023-03-14T01:20:17;11.30;99.00
39021;DHT22;25188;51.958;5.842;2023-03-14T01:22:43;11.30;99.00
39021;DHT22;25188;51.958;5.842;2023-03-14T01:25:14;11.40;99.00
39021;DHT22;25188;51.958;5.842;2023-03-14T01:27:40;11.40;98.60
39021;DHT22;25188;51.958;5.842;2023-03-14T01:30:07;11.40;98.30
39021;DHT22;25188;51.958;5.842;2023-03-14T01:32:34;11.40;97.90
39021;DHT22;25188;51.958;5.842;2023-03-14T01:34:59;11.40;97.80
39021;DHT22;25188;51.958;5.842;2023-03-14T01:37:25;11.40;97.70
39021;DHT22;25188;51.958;5.842;2023-03-14T01:39:50;11.40;97.80
39021;DHT22;25188;51.958;5.842;2023-03-14T01:42:16;11.40;97.70
39021;DHT22;25188;51.958;5.842;2023-03-14T01:44:54;11.40;97.80
39021;DHT22;25188;51.958;5.842;2023-03-14T01:47:20;11.40;98.00
39021;DHT22;25188;51.958;5.842;2023-03-14T01:50:09;11.40;98.10
39021;DHT22;25188;51.958;5.842;2023-03-14T01:52:44;11.40;98.40
39021;DHT22;25188;51.958;5.842;2023-03-14T01:55:20;11.30;98.60
39021;DHT22;25188;51.958;5.842;2023-03-14T01:57:59;11.30;99.80
39021;DHT22;25188;51.958;5.842;2023-03-14T02:00:26;11.20;99.90
39021;DHT22;25188;51.958;5.842;2023-03-14T02:02:55;11.10;99.90
39021;DHT22;25188;51.958;5.842;2023-03-14T02:05:37;11.10;99.90
39021;DHT22;25188;51.958;5.842;2023-03-14T02:08:07;11.00;99.90
39021;DHT22;25188;51.958;5.842;2023-03-14T02:10:38;10.90;99.90
39021;DHT22;25188;51.958;5.842;2023-03-14T02:13:05;10.80;99.90
39021;DHT22;25188;51.958;5.842;2023-03-14T02:15:32;10.80;99.90
39021;DHT22;25188;51.958;5.842;2023-03-14T02:17:58;10.70;99.90
39021;DHT22;25188;51.958;5.842;2023-03-14T02:22:53;10.60;99.90
39021;DHT22;25188;51.958;5.842;2023-03-14T02:27:51;10.50;99.90
39021;DHT22;25188;51.958;5.842;2023-03-14T02:30:24;10.40;99.90
39021;DHT22;25188;51.958;5.842;2023-03-14T02:32:54;10.40;99.90
39021;DHT22;25188;51.958;5.842;2023-03-14T02:35:24;10.20;99.90
39021;DHT22;25188;51.958;5.842;2023-03-14T02:37:52;10.20;99.90
39021;DHT22;25188;51.958;5.842;2023-03-14T02:40:19;10.10;99.90
39021;DHT22;25188;51.958;5.842;2023-03-14T02:42:45;10.10;99.90
39021;DHT22;25188;51.958;5.842;2023-03-14T02:47:44;10.10;99.90
39021;DHT22;25188;51.958;5.842;2023-03-14T02:50:15;10.10;99.90
39021;DHT22;25188;51.958;5.842;2023-03-14T02:52:42;10.10;99.90
39021;DHT22;25188;51.958;5.842;2023-03-14T02:55:08;10.00;99.90
39021;DHT22;25188;51.958;5.842;2023-03-14T02:57:34;10.10;99.90
39021;DHT22;25188;51.958;5.842;2023-03-14T03:00:01;10.10;99.90
39021;DHT22;25188;51.958;5.842;2023-03-14T03:02:29;10.10;99.90
39021;DHT22;25188;51.958;5.842;2023-03-14T03:04:55;10.10;99.90
39021;DHT22;25188;51.958;5.842;2023-03-14T03:07:20;10.10;99.90
39021;DHT22;25188;51.958;5.842;2023-03-14T03:09:46;10.10;99.90
39021;DHT22;25188;51.958;5.842;2023-03-14T03:12:12;10.10;99.90
39021;DHT22;25188;51.958;5.842;2023-03-14T03:14:37;10.10;99.90
39021;DHT22;25188;51.958;5.842;2023-03-14T03:17:06;10.10;99.90
39021;DHT22;25188;51.958;5.842;2023-03-14T03:19:32;10.10;99.90
39021;DHT22;25188;51.958;5.842;2023-03-14T03:21:58;10.10;99.90
39021;DHT22;25188;51.958;5.842;2023-03-14T03:24:25;10.00;99.90
39021;DHT22;25188;51.958;5.842;2023-03-14T03:26:50;10.10;99.90
39021;DHT22;25188;51.958;5.842;2023-03-14T03:29:16;10.10;99.90
39021;DHT22;25188;51.958;5.842;2023-03-14T03:31:42;10.10;99.90
39021;DHT22;25188;51.958;5.842;2023-03-14T03:34:11;10.10;99.90
39021;DHT22;25188;51.958;5.842;2023-03-14T03:36:36;10.10;99.90
39021;DHT22;25188;51.958;5.842;2023-03-14T03:39:02;10.10;99.90
39021;DHT22;25188;51.958;5.842;2023-03-14T03:41:28;10.20;99.90
39021;DHT22;25188;51.958;5.842;2023-03-14T03:43:53;10.20;99.90
39021;DHT22;25188;51.958;5.842;2023-03-14T03:46:19;10.20;99.90
39021;DHT22;25188;51.958;5.842;2023-03-14T03:48:45;10.20;99.90
39021;DHT22;25188;51.958;5.842;2023-03-14T03:51:15;10.20;99.90
39021;DHT22;25188;51.958;5.842;2023-03-14T03:53:42;10.30;99.90
39021;DHT22;25188;51.958;5.842;2023-03-14T03:56:08;10.20;99.90
39021;DHT22;25188;51.958;5.842;2023-03-14T03:58:34;10.30;99.90
39021;DHT22;25188;51.958;5.842;2023-03-14T04:01:00;10.30;99.90
39021;DHT22;25188;51.958;5.842;2023-03-14T04:03:25;10.40;99.90
39021;DHT22;25188;51.958;5.842;2023-03-14T04:06:01;10.40;99.90
39021;DHT22;25188;51.958;5.842;2023-03-14T04:08:28;10.40;99.90
39021;DHT22;25188;51.958;5.842;2023-03-14T04:10:58;10.50;99.90
39021;DHT22;25188;51.958;5.842;2023-03-14T04:13:24;10.40;99.90
39021;DHT22;25188;51.958;5.842;2023-03-14T04:15:51;10.50;99.90
39021;DHT22;25188;51.958;5.842;2023-03-14T04:18:17;10.50;99.90
39021;DHT22;25188;51.958;5.842;2023-03-14T04:20:43;10.50;99.90
39021;DHT22;25188;51.958;5.842;2023-03-14T04:23:09;10.50;99.90
39021;DHT22;25188;51.958;5.842;2023-03-14T04:25:34;10.60;99.90
39021;DHT22;25188;51.958;5.842;2023-03-14T04:28:01;10.50;99.90
39021;DHT22;25188;51.958;5.842;2023-03-14T04:30:27;10.60;99.90
39021;DHT22;25188;51.958;5.842;2023-03-14T04:32:52;10.60;99.90
39021;DHT22;25188;51.958;5.842;2023-03-14T04:35:18;10.60;99.90
39021;DHT22;25188;51.958;5.842;2023-03-14T04:37:44;10.60;99.90
39021;DHT22;25188;51.958;5.842;2023-03-14T04:40:10;10.60;99.90
39021;DHT22;25188;51.958;5.842;2023-03-14T04:42:36;10.60;99.90
39021;DHT22;25188;51.958;5.842;2023-03-14T04:45:02;10.60;99.90
39021;DHT22;25188;51.958;5.842;2023-03-14T04:47:28;10.70;99.90
39021;DHT22;25188;51.958;5.842;2023-03-14T04:49:54;10.70;99.90
39021;DHT22;25188;51.958;5.842;2023-03-14T04:52:19;10.70;99.90
39021;DHT22;25188;51.958;5.842;2023-03-14T04:54:45;10.70;99.90
39021;DHT22;25188;51.958;5.842;2023-03-14T04:57:11;10.70;99.90
39021;DHT22;25188;51.958;5.842;2023-03-14T04:59:36;10.70;99.90
39021;DHT22;25188;51.958;5.842;2023-03-14T05:02:02;10.70;99.90
39021;DHT22;25188;51.958;5.842;2023-03-14T05:04:28;10.70;99.90
39021;DHT22;25188;51.958;5.842;2023-03-14T05:06:54;10.70;99.90
39021;DHT22;25188;51.958;5.842;2023-03-14T05:09:20;10.70;99.90
39021;DHT22;25188;51.958;5.842;2023-03-14T05:11:45;10.70;99.90
39021;DHT22;25188;51.958;5.842;2023-03-14T05:14:11;10.70;99.90
39021;DHT22;25188;51.958;5.842;2023-03-14T05:16:37;10.70;99.90
39021;DHT22;25188;51.958;5.842;2023-03-14T05:19:02;10.70;99.90
39021;DHT22;25188;51.958;5.842;2023-03-14T05:21:28;10.70;99.90
39021;DHT22;25188;51.958;5.842;2023-03-14T05:23:54;10.70;99.90
39021;DHT22;25188;51.958;5.842;2023-03-14T05:26:19;10.70;99.90
39021;DHT22;25188;51.958;5.842;2023-03-14T05:28:45;10.70;99.90
39021;DHT22;25188;51.958;5.842;2023-03-14T05:31:11;10.60;99.90
39021;DHT22;25188;51.958;5.842;2023-03-14T05:33:37;10.60;99.90
39021;DHT22;25188;51.958;5.842;2023-03-14T05:36:03;10.60;99.90
39021;DHT22;25188;51.958;5.842;2023-03-14T05:38:29;10.60;99.90
39021;DHT22;25188;51.958;5.842;2023-03-14T05:40:54;10.60;99.90
39021;DHT22;25188;51.958;5.842;2023-03-14T05:43:20;10.50;99.90
39021;DHT22;25188;51.958;5.842;2023-03-14T05:45:46;10.50;99.90
39021;DHT22;25188;51.958;5.842;2023-03-14T05:48:11;10.50;99.90
39021;DHT22;25188;51.958;5.842;2023-03-14T05:50:37;10.50;99.90
39021;DHT22;25188;51.958;5.842;2023-03-14T05:53:02;10.50;99.90
39021;DHT22;25188;51.958;5.842;2023-03-14T05:55:28;10.50;99.90
39021;DHT22;25188;51.958;5.842;2023-03-14T05:57:54;10.40;99.90
39021;DHT22;25188;51.958;5.842;2023-03-14T06:00:20;10.40;99.90
39021;DHT22;25188;51.958;5.842;2023-03-14T06:02:46;10.40;99.90
39021;DHT22;25188;51.958;5.842;2023-03-14T06:05:12;10.40;99.90
39021;DHT22;25188;51.958;5.842;2023-03-14T06:07:38;10.40;99.90
39021;DHT22;25188;51.958;5.842;2023-03-14T06:10:04;10.40;99.90
39021;DHT22;25188;51.958;5.842;2023-03-14T06:12:30;10.40;99.90
39021;DHT22;25188;51.958;5.842;2023-03-14T06:14:55;10.40;99.90
39021;DHT22;25188;51.958;5.842;2023-03-14T06:17:21;10.30;99.90
39021;DHT22;25188;51.958;5.842;2023-03-14T06:19:47;10.40;99.90
39021;DHT22;25188;51.958;5.842;2023-03-14T06:22:12;10.30;99.90
39021;DHT22;25188;51.958;5.842;2023-03-14T06:24:38;10.30;99.90
39021;DHT22;25188;51.958;5.842;2023-03-14T06:27:04;10.30;99.90
39021;DHT22;25188;51.958;5.842;2023-03-14T06:29:30;10.20;99.90
39021;DHT22;25188;51.958;5.842;2023-03-14T06:31:56;10.20;99.90
39021;DHT22;25188;51.958;5.842;2023-03-14T06:34:21;10.20;99.90
39021;DHT22;25188;51.958;5.842;2023-03-14T06:36:47;10.10;99.90
39021;DHT22;25188;51.958;5.842;2023-03-14T06:39:13;10.10;99.90
39021;DHT22;25188;51.958;5.842;2023-03-14T06:41:38;10.10;99.90
39021;DHT22;25188;51.958;5.842;2023-03-14T06:44:04;10.10;99.90
39021;DHT22;25188;51.958;5.842;2023-03-14T06:46:31;10.10;99.90
39021;DHT22;25188;51.958;5.842;2023-03-14T06:48:56;10.10;99.90
39021;DHT22;25188;51.958;5.842;2023-03-14T06:51:22;10.10;99.90
39021;DHT22;25188;51.958;5.842;2023-03-14T06:53:48;10.10;99.90
39021;DHT22;25188;51.958;5.842;2023-03-14T06:56:14;10.00;99.90
39021;DHT22;25188;51.958;5.842;2023-03-14T06:58:39;10.00;99.90
39021;DHT22;25188;51.958;5.842;2023-03-14T07:01:06;10.00;99.90
39021;DHT22;25188;51.958;5.842;2023-03-14T07:03:35;10.10;99.90
39021;DHT22;25188;51.958;5.842;2023-03-14T07:06:01;10.00;99.90
39021;DHT22;25188;51.958;5.842;2023-03-14T07:08:26;10.10;99.90
39021;DHT22;25188;51.958;5.842;2023-03-14T07:10:52;10.10;99.90
39021;DHT22;25188;51.958;5.842;2023-03-14T07:13:18;10.10;99.90
39021;DHT22;25188;51.958;5.842;2023-03-14T07:15:45;10.20;99.90
39021;DHT22;25188;51.958;5.842;2023-03-14T07:18:10;10.20;99.90
39021;DHT22;25188;51.958;5.842;2023-03-14T07:20:36;10.20;99.90
39021;DHT22;25188;51.958;5.842;2023-03-14T07:23:02;10.20;99.90
39021;DHT22;25188;51.958;5.842;2023-03-14T07:25:28;10.10;99.90
39021;DHT22;25188;51.958;5.842;2023-03-14T07:27:54;10.00;99.90
39021;DHT22;25188;51.958;5.842;2023-03-14T07:30:20;9.90;99.90
39021;DHT22;25188;51.958;5.842;2023-03-14T07:32:45;9.70;99.90
39021;DHT22;25188;51.958;5.842;2023-03-14T07:35:11;9.60;99.90
39021;DHT22;25188;51.958;5.842;2023-03-14T07:37:36;9.40;99.90
39021;DHT22;25188;51.958;5.842;2023-03-14T07:40:02;9.30;99.90
39021;DHT22;25188;51.958;5.842;2023-03-14T07:42:30;9.10;99.90
39021;DHT22;25188;51.958;5.842;2023-03-14T07:44:56;9.00;99.90
39021;DHT22;25188;51.958;5.842;2023-03-14T07:47:22;8.80;99.90
39021;DHT22;25188;51.958;5.842;2023-03-14T07:49:47;8.70;99.90
39021;DHT22;25188;51.958;5.842;2023-03-14T07:52:13;8.70;99.90
39021;DHT22;25188;51.958;5.842;2023-03-14T07:54:38;8.60;99.90
39021;DHT22;25188;51.958;5.842;2023-03-14T07:57:04;8.50;99.90
39021;DHT22;25188;51.958;5.842;2023-03-14T07:59:29;8.50;99.90
39021;DHT22;25188;51.958;5.842;2023-03-14T08:01:55;8.50;99.90
39021;DHT22;25188;51.958;5.842;2023-03-14T08:04:21;8.40;99.90
39021;DHT22;25188;51.958;5.842;2023-03-14T08:06:46;8.40;99.90
39021;DHT22;25188;51.958;5.842;2023-03-14T08:09:12;8.30;99.90
39021;DHT22;25188;51.958;5.842;2023-03-14T08:11:38;8.30;99.90
39021;DHT22;25188;51.958;5.842;2023-03-14T08:14:03;8.20;99.90
39021;DHT22;25188;51.958;5.842;2023-03-14T08:16:29;8.10;99.90
39021;DHT22;25188;51.958;5.842;2023-03-14T08:18:54;8.00;99.90
39021;DHT22;25188;51.958;5.842;2023-03-14T08:21:21;8.00;99.90
39021;DHT22;25188;51.958;5.842;2023-03-14T08:23:47;8.00;99.90
39021;DHT22;25188;51.958;5.842;2023-03-14T08:26:12;7.90;99.90
39021;DHT22;25188;51.958;5.842;2023-03-14T08:28:38;7.90;99.90
39021;DHT22;25188;51.958;5.842;2023-03-14T08:31:04;7.90;99.90
39021;DHT22;25188;51.958;5.842;2023-03-14T08:33:29;7.90;99.90
39021;DHT22;25188;51.958;5.842;2023-03-14T08:35:57;7.90;99.90
39021;DHT22;25188;51.958;5.842;2023-03-14T08:38:23;7.90;99.90
39021;DHT22;25188;51.958;5.842;2023-03-14T08:40:49;7.90;99.90
39021;DHT22;25188;51.958;5.842;2023-03-14T08:43:15;7.90;99.90
39021;DHT22;25188;51.958;5.842;2023-03-14T08:45:41;7.90;99.90
39021;DHT22;25188;51.958;5.842;2023-03-14T08:48:06;7.70;99.90
39021;DHT22;25188;51.958;5.842;2023-03-14T08:50:33;7.60;99.90
39021;DHT22;25188;51.958;5.842;2023-03-14T08:52:58;7.50;99.90
39021;DHT22;25188;51.958;5.842;2023-03-14T08:55:26;7.40;99.90
39021;DHT22;25188;51.958;5.842;2023-03-14T08:57:52;7.30;99.90
39021;DHT22;25188;51.958;5.842;2023-03-14T09:00:19;7.40;99.90
39021;DHT22;25188;51.958;5.842;2023-03-14T09:02:44;7.30;99.90
39021;DHT22;25188;51.958;5.842;2023-03-14T09:05:11;7.30;99.90
39021;DHT22;25188;51.958;5.842;2023-03-14T09:07:37;7.40;99.90
39021;DHT22;25188;51.958;5.842;2023-03-14T09:10:03;7.30;99.90
39021;DHT22;25188;51.958;5.842;2023-03-14T09:12:29;7.40;99.90
39021;DHT22;25188;51.958;5.842;2023-03-14T09:14:55;7.40;99.90
39021;DHT22;25188;51.958;5.842;2023-03-14T09:17:21;7.40;99.90
39021;DHT22;25188;51.958;5.842;2023-03-14T09:19:47;7.40;99.90
39021;DHT22;25188;51.958;5.842;2023-03-14T09:22:12;7.30;99.90
39021;DHT22;25188;51.958;5.842;2023-03-14T09:24:40;7.30;99.90
39021;DHT22;25188;51.958;5.842;2023-03-14T09:27:06;7.20;99.90
39021;DHT22;25188;51.958;5.842;2023-03-14T09:29:32;7.20;99.90
39021;DHT22;25188;51.958;5.842;2023-03-14T09:31:58;7.20;99.90
39021;DHT22;25188;51.958;5.842;2023-03-14T09:34:24;7.40;99.90
39021;DHT22;25188;51.958;5.842;2023-03-14T09:36:50;7.50;99.90
39021;DHT22;25188;51.958;5.842;2023-03-14T09:39:15;7.60;99.90
39021;DHT22;25188;51.958;5.842;2023-03-14T09:41:45;7.60;99.90
39021;DHT22;25188;51.958;5.842;2023-03-14T09:44:16;7.70;99.90
39021;DHT22;25188;51.958;5.842;2023-03-14T09:46:47;7.80;99.90
39021;DHT22;25188;51.958;5.842;2023-03-14T09:49:21;7.90;99.90
39021;DHT22;25188;51.958;5.842;2023-03-14T09:51:52;7.80;99.90
39021;DHT22;25188;51.958;5.842;2023-03-14T09:54:42;7.90;99.90
39021;DHT22;25188;51.958;5.842;2023-03-14T09:57:13;7.90;99.90
39021;DHT22;25188;51.958;5.842;2023-03-14T09:59:42;7.90;99.90
39021;DHT22;25188;51.958;5.842;2023-03-14T10:02:33;7.90;99.90
39021;DHT22;25188;51.958;5.842;2023-03-14T10:05:00;7.80;99.90
39021;DHT22;25188;51.958;5.842;2023-03-14T10:07:29;7.80;99.90
39021;DHT22;25188;51.958;5.842;2023-03-14T10:09:55;7.80;99.90
39021;DHT22;25188;51.958;5.842;2023-03-14T10:12:34;7.80;99.90
39021;DHT22;25188;51.958;5.842;2023-03-14T10:15:06;7.90;99.90
39021;DHT22;25188;51.958;5.842;2023-03-14T10:17:43;8.00;99.90
39021;DHT22;25188;51.958;5.842;2023-03-14T10:20:37;8.00;99.90
39021;DHT22;25188;51.958;5.842;2023-03-14T10:23:23;8.00;99.90
39021;DHT22;25188;51.958;5.842;2023-03-14T10:26:12;8.10;99.90
39021;DHT22;25188;51.958;5.842;2023-03-14T10:28:43;8.20;99.90
39021;DHT22;25188;51.958;5.842;2023-03-14T10:31:09;8.20;99.90
39021;DHT22;25188;51.958;5.842;2023-03-14T10:33:36;8.20;99.90
39021;DHT22;25188;51.958;5.842;2023-03-14T10:38:40;8.50;99.90
39021;DHT22;25188;51.958;5.842;2023-03-14T10:41:17;8.60;99.90
39021;DHT22;25188;51.958;5.842;2023-03-14T10:43:44;8.60;99.90
39021;DHT22;25188;51.958;5.842;2023-03-14T10:46:15;8.60;99.90
39021;DHT22;25188;51.958;5.842;2023-03-14T10:48:41;8.70;99.90
39021;DHT22;25188;51.958;5.842;2023-03-14T10:53:47;9.10;99.90
39021;DHT22;25188;51.958;5.842;2023-03-14T10:56:14;9.20;99.90
39021;DHT22;25188;51.958;5.842;2023-03-14T10:58:47;9.60;99.90
39021;DHT22;25188;51.958;5.842;2023-03-14T11:04:40;9.60;99.90
39021;DHT22;25188;51.958;5.842;2023-03-14T11:07:14;9.30;98.40
39021;DHT22;25188;51.958;5.842;2023-03-14T11:09:56;9.10;98.40
39021;DHT22;25188;51.958;5.842;2023-03-14T11:12:45;9.00;98.60
39021;DHT22;25188;51.958;5.842;2023-03-14T11:15:41;9.10;98.90
39021;DHT22;25188;51.958;5.842;2023-03-14T11:20:55;9.40;99.20
39021;DHT22;25188;51.958;5.842;2023-03-14T11:26:30;9.90;99.30
39021;DHT22;25188;51.958;5.842;2023-03-14T11:29:08;10.00;98.60
39021;DHT22;25188;51.958;5.842;2023-03-14T11:31:39;10.00;94.70
39021;DHT22;25188;51.958;5.842;2023-03-14T11:34:28;9.80;94.10
39021;DHT22;25188;51.958;5.842;2023-03-14T11:37:07;9.70;92.50
39021;DHT22;25188;51.958;5.842;2023-03-14T11:39:42;9.70;92.90
39021;DHT22;25188;51.958;5.842;2023-03-14T11:42:14;9.70;92.50
39021;DHT22;25188;51.958;5.842;2023-03-14T11:44:41;9.70;92.20
39021;DHT22;25188;51.958;5.842;2023-03-14T11:47:33;9.80;91.30
39021;DHT22;25188;51.958;5.842;2023-03-14T11:52:36;10.00;89.90
39021;DHT22;25188;51.958;5.842;2023-03-14T11:55:10;10.40;91.00
39021;DHT22;25188;51.958;5.842;2023-03-14T11:57:39;10.70;90.40
39021;DHT22;25188;51.958;5.842;2023-03-14T12:00:23;11.40;87.00
39021;DHT22;25188;51.958;5.842;2023-03-14T12:08:48;13.50;78.10
39021;DHT22;25188;51.958;5.842;2023-03-14T12:11:28;14.10;75.30
39021;DHT22;25188;51.958;5.842;2023-03-14T12:13:55;14.00;70.90
39021;DHT22;25188;51.958;5.842;2023-03-14T12:18:50;14.50;69.20
39021;DHT22;25188;51.958;5.842;2023-03-14T12:21:17;15.00;65.70
39021;DHT22;25188;51.958;5.842;2023-03-14T12:26:25;15.80;57.40
39021;DHT22;25188;51.958;5.842;2023-03-14T12:40:15;15.90;51.50
39021;DHT22;25188;51.958;5.842;2023-03-14T12:45:24;16.30;49.10
39021;DHT22;25188;51.958;5.842;2023-03-14T12:47:53;16.50;50.10
39021;DHT22;25188;51.958;5.842;2023-03-14T12:50:26;16.80;47.80
39021;DHT22;25188;51.958;5.842;2023-03-14T13:00:58;17.50;45.90
39021;DHT22;25188;51.958;5.842;2023-03-14T13:03:27;17.60;45.90
39021;DHT22;25188;51.958;5.842;2023-03-14T13:06:02;17.80;44.50
39021;DHT22;25188;51.958;5.842;2023-03-14T13:08:43;18.00;44.00
39021;DHT22;25188;51.958;5.842;2023-03-14T13:11:16;17.90;42.90
39021;DHT22;25188;51.958;5.842;2023-03-14T13:13:49;17.90;43.70
39021;DHT22;25188;51.958;5.842;2023-03-14T13:16:18;18.20;43.80
39021;DHT22;25188;51.958;5.842;2023-03-14T13:19:11;18.30;42.80
39021;DHT22;25188;51.958;5.842;2023-03-14T13:21:35;18.30;42.60
39021;DHT22;25188;51.958;5.842;2023-03-14T13:24:07;18.50;42.30
39021;DHT22;25188;51.958;5.842;2023-03-14T13:26:42;18.70;44.00
39021;DHT22;25188;51.958;5.842;2023-03-14T13:31:54;18.90;39.10
39021;DHT22;25188;51.958;5.842;2023-03-14T13:34:24;18.80;38.20
39021;DHT22;25188;51.958;5.842;2023-03-14T13:36:52;18.40;38.50
39021;DHT22;25188;51.958;5.842;2023-03-14T13:39:23;18.10;39.10
39021;DHT22;25188;51.958;5.842;2023-03-14T13:41:51;18.00;37.80
39021;DHT22;25188;51.958;5.842;2023-03-14T13:44:27;17.70;38.10
39021;DHT22;25188;51.958;5.842;2023-03-14T13:46:59;17.60;38.60
39021;DHT22;25188;51.958;5.842;2023-03-14T13:49:26;17.60;38.80
39021;DHT22;25188;51.958;5.842;2023-03-14T13:51:54;17.50;38.30
39021;DHT22;25188;51.958;5.842;2023-03-14T13:54:21;17.20;38.80
39021;DHT22;25188;51.958;5.842;2023-03-14T13:56:49;16.80;38.90
39021;DHT22;25188;51.958;5.842;2023-03-14T13:59:25;16.10;39.90
39021;DHT22;25188;51.958;5.842;2023-03-14T14:01:52;15.90;41.00
39021;DHT22;25188;51.958;5.842;2023-03-14T14:04:23;15.60;41.20
39021;DHT22;25188;51.958;5.842;2023-03-14T14:06:57;15.30;42.10
39021;DHT22;25188;51.958;5.842;2023-03-14T14:09:35;15.30;42.40
39021;DHT22;25188;51.958;5.842;2023-03-14T14:15:00;14.80;42.80
39021;DHT22;25188;51.958;5.842;2023-03-14T14:20:00;15.00;42.30
39021;DHT22;25188;51.958;5.842;2023-03-14T14:22:29;14.90;42.00
39021;DHT22;25188;51.958;5.842;2023-03-14T14:24:55;14.80;41.90
39021;DHT22;25188;51.958;5.842;2023-03-14T14:27:39;15.10;42.80
39021;DHT22;25188;51.958;5.842;2023-03-14T14:30:29;15.70;42.80
39021;DHT22;25188;51.958;5.842;2023-03-14T14:33:11;16.40;41.60
39021;DHT22;25188;51.958;5.842;2023-03-14T14:35:37;16.60;41.30
39021;DHT22;25188;51.958;5.842;2023-03-14T14:38:12;16.20;40.20
39021;DHT22;25188;51.958;5.842;2023-03-14T14:40:44;15.70;40.50
39021;DHT22;25188;51.958;5.842;2023-03-14T14:43:14;15.10;41.30
39021;DHT22;25188;51.958;5.842;2023-03-14T14:45:42;14.70;41.30
39021;DHT22;25188;51.958;5.842;2023-03-14T14:48:13;14.30;41.50
39021;DHT22;25188;51.958;5.842;2023-03-14T14:51:01;14.00;41.90
39021;DHT22;25188;51.958;5.842;2023-03-14T14:53:38;13.60;42.20
39021;DHT22;25188;51.958;5.842;2023-03-14T14:56:17;13.20;42.80
39021;DHT22;25188;51.958;5.842;2023-03-14T14:58:46;12.80;43.10
39021;DHT22;25188;51.958;5.842;2023-03-14T15:01:22;12.50;43.80
39021;DHT22;25188;51.958;5.842;2023-03-14T15:03:50;12.30;44.30
39021;DHT22;25188;51.958;5.842;2023-03-14T15:06:17;12.20;45.20
39021;DHT22;25188;51.958;5.842;2023-03-14T15:08:44;12.20;44.50
39021;DHT22;25188;51.958;5.842;2023-03-14T15:11:22;11.90;44.40
39021;DHT22;25188;51.958;5.842;2023-03-14T15:13:49;11.70;45.00
39021;DHT22;25188;51.958;5.842;2023-03-14T15:16:23;11.40;46.10
39021;DHT22;25188;51.958;5.842;2023-03-14T15:18:58;11.20;46.20
39021;DHT22;25188;51.958;5.842;2023-03-14T15:21:25;11.00;47.00
39021;DHT22;25188;51.958;5.842;2023-03-14T15:23:51;10.80;47.80
39021;DHT22;25188;51.958;5.842;2023-03-14T15:26:22;10.60;47.80
39021;DHT22;25188;51.958;5.842;2023-03-14T15:28:48;10.50;48.00
39021;DHT22;25188;51.958;5.842;2023-03-14T15:31:16;10.50;48.70
39021;DHT22;25188;51.958;5.842;2023-03-14T15:33:44;10.40;49.50
39021;DHT22;25188;51.958;5.842;2023-03-14T15:36:24;10.20;49.90
39021;DHT22;25188;51.958;5.842;2023-03-14T15:38:51;10.20;50.60
39021;DHT22;25188;51.958;5.842;2023-03-14T15:41:18;10.10;50.80
39021;DHT22;25188;51.958;5.842;2023-03-14T15:43:44;10.00;51.20
39021;DHT22;25188;51.958;5.842;2023-03-14T15:46:10;10.00;51.40
39021;DHT22;25188;51.958;5.842;2023-03-14T15:48:36;10.00;51.70
39021;DHT22;25188;51.958;5.842;2023-03-14T15:51:02;9.90;51.90
39021;DHT22;25188;51.958;5.842;2023-03-14T15:53:27;9.80;52.10
39021;DHT22;25188;51.958;5.842;2023-03-14T15:55:53;9.70;52.10
39021;DHT22;25188;51.958;5.842;2023-03-14T15:58:19;9.60;52.80
39021;DHT22;25188;51.958;5.842;2023-03-14T16:00:45;9.50;53.30
39021;DHT22;25188;51.958;5.842;2023-03-14T16:03:11;9.30;53.30
39021;DHT22;25188;51.958;5.842;2023-03-14T16:05:38;9.20;53.90
39021;DHT22;25188;51.958;5.842;2023-03-14T16:08:04;9.20;54.50
39021;DHT22;25188;51.958;5.842;2023-03-14T16:10:30;9.10;54.10
39021;DHT22;25188;51.958;5.842;2023-03-14T16:12:56;9.00;53.40
39021;DHT22;25188;51.958;5.842;2023-03-14T16:15:21;8.90;52.50
39021;DHT22;25188;51.958;5.842;2023-03-14T16:17:47;8.90;52.60
39021;DHT22;25188;51.958;5.842;2023-03-14T16:20:17;8.70;52.60
39021;DHT22;25188;51.958;5.842;2023-03-14T16:22:45;8.70;52.60
39021;DHT22;25188;51.958;5.842;2023-03-14T16:25:14;8.50;53.20
39021;DHT22;25188;51.958;5.842;2023-03-14T16:27:40;8.50;53.20
39021;DHT22;25188;51.958;5.842;2023-03-14T16:30:08;8.40;53.70
39021;DHT22;25188;51.958;5.842;2023-03-14T16:32:35;8.40;54.40
39021;DHT22;25188;51.958;5.842;2023-03-14T16:35:01;8.30;54.30
39021;DHT22;25188;51.958;5.842;2023-03-14T16:37:27;8.30;54.50
39021;DHT22;25188;51.958;5.842;2023-03-14T16:39:53;8.30;55.10
39021;DHT22;25188;51.958;5.842;2023-03-14T16:42:22;8.20;55.00
39021;DHT22;25188;51.958;5.842;2023-03-14T16:44:48;8.10;55.10
39021;DHT22;25188;51.958;5.842;2023-03-14T16:47:13;8.10;55.30
39021;DHT22;25188;51.958;5.842;2023-03-14T16:49:39;8.00;55.40